Robert Kristensen

Olheiro - OB
9 Abr 2028
Domingo
Processo

Personalidade

Adaptabilidade (10) Ambição (1) Controvérsia (1) Lealdade (19) Pressão (17) Profissionalismo (19) Espírito Esportivo (7) Temperamento (18)

Perfil

Estilo de Treinamento Democrático
Licença Continental A
Determinação 7
Gestão de Pessoas 5
Motivação 12
Disciplina 12
Satisfação no Trabalho
100%
Fadiga
0%
Função Olheiro
Salário 39.3K p/s
Contrato 14.03.2029

Desempenho

Comportamento Bom
Eficácia do Treinamento
40%
Desenvolvimento do Jogador
40%
Prevenção de Lesões
60%
Implementação Tática
45%

Eventos Recentes

Participou de uma reunião de recrutamento agora
Recomendou um alvo de transferência agora
Recomendou um alvo de transferência agora
Recomendou um alvo de transferência agora
Recomendou um alvo de transferência agora
Recomendou um alvo de transferência agora
Participou de uma reunião de recrutamento agora
Participou de uma reunião de recrutamento 7d atrás

Monitorando agora

124
Jogador Clube Status Habilidade Confiança Observado Última observação Último voto
Lucas Camejo River Plate Ativo 96 / 77 40% 2 03.01.2028 -
Malte Heyde Esbjerg Ativo 110 / 108 40% 1 03.01.2028 -
Victor Hernandez Santa Fe Ativo 112 / 111 40% 1 03.01.2028 -
John Mercado Sparta Prague Negociando 122 / 123 67% 1 01.01.2028 Aprovar
Patrik Wålemark Gaziantep Negociando 124 / 125 67% 1 01.01.2028 Aprovar
Noah Markmann Esbjerg Ativo 128 / 125 40% 1 01.01.2028 -
Toheeb Adebayo Shooting Stars Ativo 82 / 77 40% 1 01.01.2028 -
Esquerdinha Notts County Ativo 121 / 113 40% 1 01.01.2028 -
Matias Siltanen Malmo FF Ativo 119 / 128 40% 4 31.12.2027 -
Matvey Bardachev Zenit Ativo 101 / 110 40% 1 31.12.2027 -
Salvador Blopá Sporting CP Ativo 130 / 131 40% 1 31.12.2027 -
Kevin Filling AIK Ativo 106 / 118 40% 2 28.12.2027 -
Luka Andrade Montevideo City Torque Ativo 96 / 111 40% 1 28.12.2027 -
Lamin Sillah Exeter City Ativo 111 / 97 40% 1 28.12.2027 -
Ruben Ramos LA Galaxy Ativo 91 / 112 40% 2 26.12.2027 -
Babis Kostoulas Oxford United Ativo 131 / 161 40% 1 26.12.2027 -
Luca Meirelles Kudrivka Ativo 131 / 121 40% 1 26.12.2027 -
Rafael Moreno Atletico Venezuela Ativo 117 / 114 40% 2 25.12.2027 -
Stanley Amon Bayelsa United Ativo 94 / 106 40% 1 25.12.2027 -
Dylan Cabral Arsenal Ativo 101 / 93 40% 2 23.12.2027 -
Mikel Gogorza Brondby Ativo 119 / 113 40% 1 23.12.2027 -
Luighi Palmeiras Ativo 108 / 119 40% 1 23.12.2027 -
Abdullahi Mohammad Kwara United Ativo 86 / 88 40% 2 22.12.2027 -
Siyabonga Mabena Bidvest Wits Ativo 121 / 111 40% 3 22.12.2027 Observar
Idris Ajiya Nasarawa United Ativo 82 / 99 40% 3 21.12.2027 -
Igor Tyjon Barrow AFC Ativo 114 / 141 40% 1 21.12.2027 -
Jake Evans Crewe Alexandra Ativo 118 / 106 40% 1 21.12.2027 -
Edison Gruezo Guadalajara Ativo 102 / 104 40% 1 20.12.2027 -
Ryan Kavuma-McQueen Accrington Stanley Ativo 108 / 142 40% 1 18.12.2027 -
Yuri Leles Bragantino Ativo 103 / 112 40% 1 18.12.2027 -
Joseph Abah Remo Stars Ativo 81 / 102 40% 1 17.12.2027 -
Philippe Nguyen Tours Ativo 98 / 128 40% 1 16.12.2027 -
Joshua Ajala Walsall Ativo 100 / 109 40% 1 16.12.2027 -
Artur Kozyrev Volna Ativo 93 / 94 40% 2 15.12.2027 -
Sidiki Chérif Newcastle United Ativo 140 / 139 40% 1 15.12.2027 -
Yastin Cuevas Huachipato Ativo 99 / 87 40% 1 15.12.2027 -
Jayden Danns Bradford City Ativo 134 / 126 40% 2 10.12.2027 -
Facundo Rodríguez Talleres Ativo 84 / 99 40% 1 08.12.2027 -
Eli Junior Kroupi Bournemouth Ativo 148 / 141 40% 1 07.12.2027 -
Kabiru Abdullahi Barau Ativo 83 / 98 40% 1 07.12.2027 -
Daniel Johan Skaarud Sandefjord Ativo 99 / 120 40% 1 06.12.2027 -
Hosea Michael Remo Stars Ativo 93 / 83 40% 1 21.11.2027 -
Agustín De la Cuesta Racing Ativo 113 / 115 40% 2 19.11.2027 -
Francisco Machis Llaneros Ativo 78 / 80 40% 1 19.11.2027 -
Juan Camilo Córdoba Deportivo Pereira Ativo 79 / 94 40% 1 19.11.2027 -
Lucas Nicol Mjondalen Ativo 83 / 89 40% 1 17.11.2027 -
Matteo Pérez Vinlöf Dinamo Zagreb Ativo 133 / 123 40% 1 17.11.2027 -
Honest Ahanor Atalanta Ativo 138 / 155 40% 3 07.11.2027 -
Josh Nichols Oldham Athletic Ativo 115 / 143 40% 2 05.11.2027 -
Joel Ezra Enyimba Ativo 98 / 106 40% 1 05.11.2027 -
David Damboama El-Kanemi Warriors Ativo 90 / 80 40% 1 03.11.2027 -
Diego Vargas Universidad de Concepcion Ativo 101 / 93 40% 1 02.11.2027 -
Sebastián Ramírez Aguilas Doradas Ativo 100 / 121 40% 1 02.11.2027 -
Vinícius Lira São Paulo Ativo 112 / 120 40% 1 02.11.2027 -
Esteban de Lima Tacuarembo Ativo 89 / 88 40% 1 05.10.2027 -
Óscar Hinojosa Metropolitanos Ativo 71 / 75 40% 2 11.09.2027 -
Yury Oyarzo Racing Ativo 98 / 112 40% 1 11.09.2027 -
Marco Morigi Caracas Ativo 87 / 112 40% 1 11.09.2027 -
Josh Torquato FC Dallas Ativo 94 / 95 40% 1 10.09.2027 -
Santiago Colidio Liepaja Ativo 95 / 100 40% 1 10.09.2027 -
Drew Baiera New York City Ativo 95 / 83 40% 1 30.08.2027 -
Mohamed Moussa Koïta Mathare United Ativo 95 / 111 40% 1 24.08.2027 -
Matěj Ryneš AS Nancy Negociando 122 / 123 67% 1 14.06.2027 Aprovar
Sabil Hansen Randers Perdido 105 / 107 72% 1 14.06.2027 Aprovar
Matvii Ponomarenko Dynamo Kyiv Ativo 117 / 119 40% 1 14.06.2027 -
Alen Vukaj Alcione Milano Ativo 97 / 85 40% 1 14.06.2027 -
Borna Knezović Casarano Ativo 103 / 104 40% 1 14.06.2027 -
Charlie Gray Fleetwood Town Ativo 86 / 110 40% 1 02.06.2027 -
Víctor Guzmán Sporting CP Ativo 93 / 113 40% 1 02.06.2027 -
Johannes Eggestein Orlando City Negociando 125 / 125 68% 1 01.06.2027 Aprovar
Michael Noumon Heart of Lions Ativo 76 / 84 40% 1 31.05.2027 -
Sergey Gaiduk Salyut Ativo 81 / 71 40% 1 31.05.2027 -
Dani Ángel Sampdoria Ativo 88 / 95 40% 1 31.05.2027 -
Aune Heggebø West Bromwich Albion Ativo 118 / 116 40% 5 30.05.2027 -
Joe Gelhardt Hull City Ativo 124 / 124 40% 2 30.05.2027 -
Dale Taylor Blackpool Ativo 112 / 124 40% 3 29.05.2027 -
John McAtee Leyton Orient Ativo 108 / 100 40% 1 29.05.2027 -
Patrick Agyemang Derby County Ativo 116 / 131 40% 3 26.05.2027 -
Marezi Portsmouth Ativo 118 / 139 40% 2 25.05.2027 -
Yousef Salech Cardiff City Ativo 118 / 107 40% 3 24.05.2027 Observar
Will Davies Fleetwood Town Ativo 100 / 87 40% 1 24.05.2027 -
Tyreece Campbell Charlton Athletic Ativo 118 / 118 40% 3 21.05.2027 -
Rocco Vata Watford Ativo 116 / 122 40% 4 21.05.2027 -
Lorent Tolaj Plymouth Argyle Ativo 118 / 134 40% 3 21.05.2027 -
Moussa Yeo Swansea City Ativo 128 / 127 40% 1 17.05.2027 -
Cameron Archer Southampton Ativo 127 / 119 40% 3 16.05.2027 Observar
Amin Sarr Hellas Verona Ativo 123 / 116 40% 1 16.05.2027 -
Stephen Amankona Aduana Stars Ativo 99 / 102 40% 3 14.05.2027 -
Christian Saydee Wigan Athletic Ativo 102 / 131 40% 2 14.05.2027 -
Ilyas Ansah Hull City Ativo 134 / 126 40% 2 13.05.2027 -
Mees Rijks Bristol Rovers Ativo 112 / 120 40% 6 13.05.2027 -
Aidomo Emakhu Oxford United Ativo 126 / 112 40% 3 12.05.2027 -
Jaze Kabia Grimsby Town Ativo 88 / 108 40% 1 12.05.2027 -
Sam Bell Bristol City Ativo 117 / 117 40% 1 10.05.2027 -
Tyrese Campbell Sheffield United Ativo 138 / 123 40% 11 07.05.2027 -
Richard Koné Queens Park Rangers Ativo 133 / 128 40% 2 06.05.2027 -
Calum Kavanagh Oldham Athletic Ativo 91 / 101 40% 4 03.05.2027 -
Mathias Kvistgaarden Norwich City Ativo 123 / 103 40% 3 01.05.2027 -
Mohamed-Ali Cho Hull City Ativo 144 / 152 40% 4 30.04.2027 -
Sam Greenwood Bristol City Ativo 134 / 116 40% 2 27.04.2027 -
Giorgi Kvernadze Frosinone Ativo 119 / 116 40% 1 26.04.2027 -
George Brown Sheffield Wednesday Ativo 99 / 94 40% 1 26.04.2027 -
Will Swan Bradford City Ativo 104 / 97 40% 1 19.04.2027 -
Bradley Fink Wycombe Wanderers Ativo 112 / 103 40% 2 12.04.2027 -
Eddie Nketiah Crystal Palace Ativo 150 / 152 40% 1 09.04.2027 -
Malik Mothersille Stockport County Ativo 122 / 132 40% 2 08.04.2027 -
Camillo Tavernelli Arezzo Ativo 120 / 94 40% 2 06.04.2027 -
Erick Dolly Black Aces Ativo 118 / 105 40% 1 06.04.2027 -
Wandile Duba ASO Chlef Ativo 118 / 121 40% 1 23.03.2027 -
Filip Kubala Banik Ostrava Ativo 130 / 121 40% 1 16.03.2027 -
Leo Castledine Middlesbrough Ativo 123 / 140 40% 1 31.12.2026 -
Tony Springett Cheltenham Town Ativo 113 / 90 40% 1 30.12.2026 -
Kwadwo Baah Watford Ativo 118 / 117 40% 1 30.12.2026 -
Alessio Zerbin Frosinone Ativo 134 / 119 40% 1 21.12.2026 -
Jacques Ekomié Wrexham Ativo 132 / 143 40% 1 21.12.2026 -
Finn Azaz Southampton Ativo 123 / 110 40% 1 21.12.2026 -
Kevin Yakob AGF Ativo 133 / 132 40% 2 19.12.2026 -
Bongani Zungu Ajax Cape Town Ativo 126 / 133 40% 1 19.12.2026 -
Oswin Appollis Orlando Pirates Ativo 125 / 119 40% 1 18.12.2026 -
Dejan Zukić Vojvodina Ativo 128 / 114 40% 1 15.12.2026 -
Ibrahim Adel FC Nordsjaelland Ativo 132 / 132 40% 1 13.12.2026 -
Robert FC Copenhagen Ativo 125 / 140 40% 2 11.12.2026 -
Sorba Thomas Stoke City Ativo 137 / 122 40% 1 11.12.2026 -
Mikkel Kallesøe Aalborg Ativo 114 / 99 72% 1 31.08.2026 Aprovar